Maria S. Merian — DBBT — position and weather

sailwx.info

Track history (hours):
 
Tides and Currents Weather Stations Pressure Air Temp Water Temp Dewpoint Dewpoint Depression Visibility Wind Speed Wind Dir Waves Ship Positions

Oceanographic research ship Maria S. Merian (Germany)

Last reported at 2015-May-24 05:31 UTC. Time now 2015-May-25 05:30 UTC.
Position N 47°34' W 052°42'.

Length 94.8 m; beam 19.2 m; draft 6.5 m.

Type: Other ship. MMSI: 211753000.

Date/timePositionNaut miles runAvg speedWind from/ knotsBaromVisibWave heightAir tempDewpointWater temp
2015-May-24 05:31N 47°34' W 052°42'0 0.0
2015-May-23 06:27N 47°34' W 052°42'0 0.0
2015-May-23 05:33N 47°34' W 052°42'0 0.0
2015-May-23 04:14N 47°34' W 052°42'0 0.0
2015-May-23 03:32N 47°34' W 052°42'0 0.0
2015-May-23 02:07N 47°34' W 052°42'0 0.0
2015-May-22 22:30N 47°34' W 052°42'0 0.0
2015-May-22 21:23N 47°34' W 052°42'0 0.0
2015-May-22 20:17N 47°34' W 052°42'0 0.0
2015-May-22 19:16N 47°34' W 052°42'0 0.0
2015-May-22 16:27N 47°34' W 052°42'0 0.0
2015-May-22 11:17N 47°34' W 052°42'3 3.3
2015-May-22 10:28N 47°34' W 052°38'8 8.0
2015-May-22 09:31N 47°38' W 052°28'814.7
2015-May-22 09:00N 47°42' W 052°18'8 5.3 210 / 121018.6 4.0 1.5 2.3
2015-May-22 07:28N 47°45' W 052°07'33 9.3
2015-May-22 04:00N 48°00' W 051°24'1010.0 260 / 191012.5 4.9 2.1 1.8
2015-May-22 03:00N 48°06' W 051°12'34 8.5 240 / 211011.3 4.1 2.0 1.6
2015-May-21 23:00N 48°18' W 050°24'1010.0 220 / 211004.8 3.3 1.7 1.8
2015-May-21 22:00N 48°24' W 050°12'1010.0 210 / 231003.5 3.6 1.8 1.6
2015-May-21 21:00N 48°30' W 050°00'53 5.9 210 / 231001.8 3.4 2.6 1.3
2015-May-21 12:00N 48°54' W 048°48'33 3.7 170 / 231004.7 3.7 2.9 1.4
2015-May-21 03:00N 49°12' W 048°06'20 9.8 180 / 211009.3 4.9 4.9 2.6
2015-May-21 01:00N 48°54' W 047°54'4611.6 170 / 191010.8 4.7 4.7 3.0
2015-May-20 21:00N 48°12' W 047°24'36 4.1 190 / 171012.8 4.9 3.9 2.8
2015-May-20 12:00N 48°18' W 046°30'1010.0 210 / 101013.5 3.8 2.3 3.1
2015-May-20 11:00N 48°24' W 046°18'23 4.6 200 / 101013.1 3.7 2.2 3.8
2015-May-20 06:00N 48°36' W 045°48'14 3.6 210 / 121012.3 4.6 2.4 4.1
2015-May-20 02:00N 48°24' W 045°36'36 2.4 200 / 141013.7 3.9 2.1 1.6
2015-May-19 11:00N 48°18' W 046°30'7 3.6 110 / 141017.9 4.3 4.1 2.6
2015-May-19 09:00N 48°24' W 046°36'13 2.5 130 / 161019.0 4.2 3.4 2.9
2015-May-19 04:00N 48°36' W 046°42'7 7.2 130 / 161022.2 4.8 4.7 3.9
2015-May-19 03:00N 48°42' W 046°48'0 0.0 130 / 161022.7 5.6 5.6 3.9
2015-May-19 02:00N 48°42' W 046°48'0 0.0 130 / 161023.1 5.5 4.0
2015-May-19 01:00N 48°42' W 046°48'6 6.0 120 / 191023.5 5.3 4.6
2015-May-19 00:00N 48°48' W 046°48'7 2.4 110 / 191024.1 5.8 5.7 4.1
2015-May-18 21:00N 48°54' W 046°54'7 7.2 100 / 211024.8 6.3 6.2 4.5
2015-May-18 20:00N 48°48' W 047°00'2412.0 100 / 231025.4 6.1 5.9 4.2
2015-May-18 18:00N 48°30' W 047°24'1010.0 080 / 211025.4 5.1 5.0 3.2
2015-May-18 17:00N 48°24' W 047°36'27 5.4 080 / 251025.3 5.6 5.6 3.7
2015-May-18 12:00N 48°06' W 048°06'0 0.0 080 / 231026.7 4.1 3.7 1.1
2015-May-18 11:00N 48°06' W 048°06'13 3.2 080 / 231026.5 4.3 3.8 2.4
2015-May-18 07:00N 48°18' W 048°00'4 4.0 070 / 231028.0 5.0 3.7 3.9
2015-May-18 06:00N 48°18' W 047°54'6 6.0 070 / 211028.7 5.5 4.0 3.6
2015-May-18 05:00N 48°24' W 047°54'0 0.0 080 / 211029.6 4.7 3.4 3.5
2015-May-18 04:00N 48°24' W 047°54'7 3.6 070 / 211030.4 5.7 3.5 3.5
2015-May-18 02:00N 48°30' W 047°48'7 7.2 070 / 191031.7 5.3 3.4 4.3
2015-May-18 01:00N 48°36' W 047°42'7 2.4 080 / 171032.2 4.3 3.1 4.2
2015-May-17 22:00N 48°42' W 047°36'7 7.2 070 / 171033.0 4.8 2.4 2.7
2015-May-17 21:00N 48°48' W 047°30'6 2.0 080 / 161033.6 4.5 2.4 2.7
2015-May-17 18:00N 48°54' W 047°30'41 3.7 070 / 141034.0 5.6 3.1 3.6
2015-May-17 07:00N 49°30' W 047°00'0 0.0 060 / 121033.3 4.6 2.8 4.5
2015-May-17 06:00N 49°30' W 047°00'20 2.8 050 / 121033.4 4.4 2.5 4.6
2015-May-16 23:00N 49°48' W 046°48'7 7.1 040 / 101031.5 5.8 3.4 4.7
2015-May-16 22:00N 49°54' W 046°42'0 0.0 040 / 101031.1 5.7 3.3 5.0
2015-May-16 21:00N 49°54' W 046°42'0 0.0 050 / 101030.6 5.6 3.3 5.1
2015-May-16 20:00N 49°54' W 046°42'32 4.0 040 / 101030.1 6.1 3.8 5.3
2015-May-16 12:00N 50°24' W 046°24'8 2.5 310 / 81025.6 4.0 2.6 4.4
2015-May-16 09:00N 50°24' W 046°12'10 3.2 230 / 191023.0 4.8 3.0 5.2
2015-May-16 06:00N 50°18' W 046°00'17 4.2 210 / 211022.6 5.1 3.0 5.2
2015-May-16 02:00N 50°06' W 045°42'0 0.0 200 / 191023.4 4.9 3.5 5.3
2015-May-16 01:00N 50°06' W 045°42'4 1.3 200 / 171024.1 4.7 3.2 5.2
2015-May-15 22:00N 50°06' W 045°36'10 9.8 230 / 211023.5 4.5 2.5 5.1
2015-May-15 21:00N 50°00' W 045°24'0 0.0 230 / 211023.2 4.8 2.6 5.1
2015-May-15 20:00N 50°00' W 045°24'6 6.0 240 / 231022.7 4.7 2.2 5.2
2015-May-15 19:00N 49°54' W 045°24'24 2.0 220 / 271022.2 4.8 2.8 4.8
2015-May-15 07:00N 49°36' W 045°00'6 3.0 230 / 211021.6 2.2-1.4 4.5
2015-May-15 05:00N 49°30' W 045°00'0 0.0 260 / 191021.3 1.9-3.9 3.3
2015-May-15 04:00N 49°30' W 045°00'18 4.5 260 / 191021.1 2.3-3.0 3.3
2015-May-15 00:00N 49°12' W 045°00'6 1.5 260 / 161019.3 2.3-1.5 2.3
2015-May-14 20:00N 49°06' W 045°00'6 6.0 270 / 231015.0 2.8-0.8 3.5
2015-May-14 19:00N 49°00' W 045°00'24 4.0 270 / 211014.3 2.8-0.0 2.9
2015-May-14 13:00N 48°36' W 045°00'6 6.0 290 / 211006.9 2.2 0.4 0.9
2015-May-14 12:00N 48°30' W 045°00'6 3.0 290 / 231005.4 2.4 2.0 0.7
2015-May-14 10:00N 48°24' W 045°00'0 0.0 290 / 171002.6 1.9 1.7 0.9
2015-May-14 09:00N 48°24' W 045°00'6 6.0 270 / 171001.2 1.7 1.7 1.1
2015-May-14 08:00N 48°18' W 045°00'18 9.0 270 / 141000.8 1.6 1.0
2015-May-14 06:00N 48°00' W 045°00'   270 / 161000.2 1.3 1.0 1.1
Track history (hours):
 
Tides and Currents Weather Stations Pressure Air Temp Water Temp Dewpoint Dewpoint Depression Visibility Wind Speed Wind Dir Waves Ship Positions

Oceanographic research ship Maria S. Merian (Germany)

Last reported at 2015-May-24 05:31 UTC. Time now 2015-May-25 05:31 UTC.
Position N 47°34' W 052°42'.

Length 94.8 m; beam 19.2 m; draft 6.5 m.

Type: Other ship. MMSI: 211753000.

Date/timePositionNaut miles runAvg speedWind from/ knotsBaromVisibWave heightAir tempDewpointWater temp
2015-May-24 05:31N 47°34' W 052°42'0 0.0
2015-May-23 06:27N 47°34' W 052°42'0 0.0
2015-May-23 05:33N 47°34' W 052°42'0 0.0
2015-May-23 04:14N 47°34' W 052°42'0 0.0
2015-May-23 03:32N 47°34' W 052°42'0 0.0
2015-May-23 02:07N 47°34' W 052°42'0 0.0
2015-May-22 22:30N 47°34' W 052°42'0 0.0
2015-May-22 21:23N 47°34' W 052°42'0 0.0
2015-May-22 20:17N 47°34' W 052°42'0 0.0
2015-May-22 19:16N 47°34' W 052°42'0 0.0
2015-May-22 16:27N 47°34' W 052°42'0 0.0
2015-May-22 11:17N 47°34' W 052°42'3 3.3
2015-May-22 10:28N 47°34' W 052°38'8 8.0
2015-May-22 09:31N 47°38' W 052°28'814.7
2015-May-22 09:00N 47°42' W 052°18'8 5.3 210 / 121018.6 4.0 1.5 2.3
2015-May-22 07:28N 47°45' W 052°07'33 9.3
2015-May-22 04:00N 48°00' W 051°24'1010.0 260 / 191012.5 4.9 2.1 1.8
2015-May-22 03:00N 48°06' W 051°12'34 8.5 240 / 211011.3 4.1 2.0 1.6
2015-May-21 23:00N 48°18' W 050°24'1010.0 220 / 211004.8 3.3 1.7 1.8
2015-May-21 22:00N 48°24' W 050°12'1010.0 210 / 231003.5 3.6 1.8 1.6
2015-May-21 21:00N 48°30' W 050°00'53 5.9 210 / 231001.8 3.4 2.6 1.3
2015-May-21 12:00N 48°54' W 048°48'33 3.7 170 / 231004.7 3.7 2.9 1.4
2015-May-21 03:00N 49°12' W 048°06'20 9.8 180 / 211009.3 4.9 4.9 2.6
2015-May-21 01:00N 48°54' W 047°54'4611.6 170 / 191010.8 4.7 4.7 3.0
2015-May-20 21:00N 48°12' W 047°24'36 4.1 190 / 171012.8 4.9 3.9 2.8
2015-May-20 12:00N 48°18' W 046°30'1010.0 210 / 101013.5 3.8 2.3 3.1
2015-May-20 11:00N 48°24' W 046°18'23 4.6 200 / 101013.1 3.7 2.2 3.8
2015-May-20 06:00N 48°36' W 045°48'14 3.6 210 / 121012.3 4.6 2.4 4.1
2015-May-20 02:00N 48°24' W 045°36'36 2.4 200 / 141013.7 3.9 2.1 1.6
2015-May-19 11:00N 48°18' W 046°30'7 3.6 110 / 141017.9 4.3 4.1 2.6
2015-May-19 09:00N 48°24' W 046°36'13 2.5 130 / 161019.0 4.2 3.4 2.9
2015-May-19 04:00N 48°36' W 046°42'7 7.2 130 / 161022.2 4.8 4.7 3.9
2015-May-19 03:00N 48°42' W 046°48'0 0.0 130 / 161022.7 5.6 5.6 3.9
2015-May-19 02:00N 48°42' W 046°48'0 0.0 130 / 161023.1 5.5 4.0
2015-May-19 01:00N 48°42' W 046°48'6 6.0 120 / 191023.5 5.3 4.6
2015-May-19 00:00N 48°48' W 046°48'7 2.4 110 / 191024.1 5.8 5.7 4.1
2015-May-18 21:00N 48°54' W 046°54'7 7.2 100 / 211024.8 6.3 6.2 4.5
2015-May-18 20:00N 48°48' W 047°00'2412.0 100 / 231025.4 6.1 5.9 4.2
2015-May-18 18:00N 48°30' W 047°24'1010.0 080 / 211025.4 5.1 5.0 3.2
2015-May-18 17:00N 48°24' W 047°36'27 5.4 080 / 251025.3 5.6 5.6 3.7
2015-May-18 12:00N 48°06' W 048°06'0 0.0 080 / 231026.7 4.1 3.7 1.1
2015-May-18 11:00N 48°06' W 048°06'13 3.2 080 / 231026.5 4.3 3.8 2.4
2015-May-18 07:00N 48°18' W 048°00'4 4.0 070 / 231028.0 5.0 3.7 3.9
2015-May-18 06:00N 48°18' W 047°54'6 6.0 070 / 211028.7 5.5 4.0 3.6
2015-May-18 05:00N 48°24' W 047°54'0 0.0 080 / 211029.6 4.7 3.4 3.5
2015-May-18 04:00N 48°24' W 047°54'7 3.6 070 / 211030.4 5.7 3.5 3.5
2015-May-18 02:00N 48°30' W 047°48'7 7.2 070 / 191031.7 5.3 3.4 4.3
2015-May-18 01:00N 48°36' W 047°42'7 2.4 080 / 171032.2 4.3 3.1 4.2
2015-May-17 22:00N 48°42' W 047°36'7 7.2 070 / 171033.0 4.8 2.4 2.7
2015-May-17 21:00N 48°48' W 047°30'6 2.0 080 / 161033.6 4.5 2.4 2.7
2015-May-17 18:00N 48°54' W 047°30'41 3.7 070 / 141034.0 5.6 3.1 3.6
2015-May-17 07:00N 49°30' W 047°00'0 0.0 060 / 121033.3 4.6 2.8 4.5
2015-May-17 06:00N 49°30' W 047°00'20 2.8 050 / 121033.4 4.4 2.5 4.6
2015-May-16 23:00N 49°48' W 046°48'7 7.1 040 / 101031.5 5.8 3.4 4.7
2015-May-16 22:00N 49°54' W 046°42'0 0.0 040 / 101031.1 5.7 3.3 5.0
2015-May-16 21:00N 49°54' W 046°42'0 0.0 050 / 101030.6 5.6 3.3 5.1
2015-May-16 20:00N 49°54' W 046°42'32 4.0 040 / 101030.1 6.1 3.8 5.3
2015-May-16 12:00N 50°24' W 046°24'8 2.5 310 / 81025.6 4.0 2.6 4.4
2015-May-16 09:00N 50°24' W 046°12'10 3.2 230 / 191023.0 4.8 3.0 5.2
2015-May-16 06:00N 50°18' W 046°00'17 4.2 210 / 211022.6 5.1 3.0 5.2
2015-May-16 02:00N 50°06' W 045°42'0 0.0 200 / 191023.4 4.9 3.5 5.3
2015-May-16 01:00N 50°06' W 045°42'4 1.3 200 / 171024.1 4.7 3.2 5.2
2015-May-15 22:00N 50°06' W 045°36'10 9.8 230 / 211023.5 4.5 2.5 5.1
2015-May-15 21:00N 50°00' W 045°24'0 0.0 230 / 211023.2 4.8 2.6 5.1
2015-May-15 20:00N 50°00' W 045°24'6 6.0 240 / 231022.7 4.7 2.2 5.2
2015-May-15 19:00N 49°54' W 045°24'24 2.0 220 / 271022.2 4.8 2.8 4.8
2015-May-15 07:00N 49°36' W 045°00'6 3.0 230 / 211021.6 2.2-1.4 4.5
2015-May-15 05:00N 49°30' W 045°00'0 0.0 260 / 191021.3 1.9-3.9 3.3
2015-May-15 04:00N 49°30' W 045°00'18 4.5 260 / 191021.1 2.3-3.0 3.3
2015-May-15 00:00N 49°12' W 045°00'6 1.5 260 / 161019.3 2.3-1.5 2.3
2015-May-14 20:00N 49°06' W 045°00'6 6.0 270 / 231015.0 2.8-0.8 3.5
2015-May-14 19:00N 49°00' W 045°00'24 4.0 270 / 211014.3 2.8-0.0 2.9
2015-May-14 13:00N 48°36' W 045°00'6 6.0 290 / 211006.9 2.2 0.4 0.9
2015-May-14 12:00N 48°30' W 045°00'6 3.0 290 / 231005.4 2.4 2.0 0.7
2015-May-14 10:00N 48°24' W 045°00'0 0.0 290 / 171002.6 1.9 1.7 0.9
2015-May-14 09:00N 48°24' W 045°00'6 6.0 270 / 171001.2 1.7 1.7 1.1
2015-May-14 08:00N 48°18' W 045°00'18 9.0 270 / 141000.8 1.6 1.0
2015-May-14 06:00N 48°00' W 045°00'   270 / 161000.2 1.3 1.0 1.1

Dump ship's entire track history